createdAt,value
2019-04-03T00:00:09.441Z,958.26
2019-04-03T00:01:09.550Z,958.28
2019-04-03T00:02:09.490Z,958.29
2019-04-03T00:03:09.524Z,958.25
2019-04-03T00:04:09.587Z,958.28
2019-04-03T00:05:09.464Z,958.26
2019-04-03T00:06:09.453Z,958.26
2019-04-03T00:07:09.468Z,958.23
2019-04-03T00:08:09.459Z,958.20
2019-04-03T00:09:09.478Z,958.23
2019-04-03T00:10:09.463Z,958.24
2019-04-03T00:11:09.724Z,958.25
2019-04-03T00:12:10.429Z,958.16
2019-04-03T00:13:11.089Z,958.19
2019-04-03T00:14:12.112Z,958.23
2019-04-03T00:15:09.408Z,958.18
2019-04-03T00:16:09.345Z,958.21
2019-04-03T00:17:09.334Z,958.19
2019-04-03T00:18:09.326Z,958.23
2019-04-03T00:19:09.323Z,958.19
2019-04-03T00:20:09.325Z,958.22
2019-04-03T00:21:09.369Z,958.16
2019-04-03T00:22:09.275Z,958.19
2019-04-03T00:23:09.276Z,958.15
2019-04-03T00:24:09.264Z,958.18
2019-04-03T00:25:09.239Z,958.18
2019-04-03T00:26:09.979Z,958.15
2019-04-03T00:27:09.162Z,958.15
2019-04-03T00:28:09.228Z,958.16
2019-04-03T00:29:09.187Z,958.15
2019-04-03T00:30:09.192Z,958.16
2019-04-03T00:31:09.200Z,958.15
2019-04-03T00:32:09.218Z,958.07
2019-04-03T00:33:09.206Z,958.10
2019-04-03T00:34:09.145Z,958.10
2019-04-03T00:35:09.143Z,958.09
2019-04-03T00:36:09.129Z,958.07
2019-04-03T00:37:09.106Z,958.09
2019-04-03T00:38:09.160Z,958.07
2019-04-03T00:39:09.130Z,958.01
2019-04-03T00:40:09.072Z,958.01
2019-04-03T00:41:09.066Z,958.04
2019-04-03T00:42:09.058Z,958.06
2019-04-03T00:43:09.053Z,957.99
2019-04-03T00:44:09.065Z,958.05
2019-04-03T00:45:09.083Z,957.93
2019-04-03T00:46:09.012Z,957.95
2019-04-03T00:47:09.095Z,958.02
2019-04-03T00:48:08.979Z,957.93
2019-04-03T00:49:08.978Z,958.01
2019-04-03T00:50:09.166Z,958.01
2019-04-03T00:51:08.983Z,957.95
2019-04-03T00:52:08.972Z,957.93
2019-04-03T00:53:08.992Z,957.94
2019-04-03T00:54:08.974Z,957.91
2019-04-03T00:55:08.947Z,957.86
2019-04-03T00:56:08.927Z,957.91
2019-04-03T00:57:08.916Z,957.92
2019-04-03T00:58:08.872Z,957.93
2019-04-03T00:59:08.866Z,957.88
2019-04-03T01:00:08.772Z,957.94
2019-04-03T01:01:08.848Z,957.87
2019-04-03T01:02:09.575Z,957.91
2019-04-03T01:03:08.863Z,957.92
2019-04-03T01:04:08.820Z,957.90
2019-04-03T01:05:08.833Z,957.85
2019-04-03T01:06:08.828Z,957.88
2019-04-03T01:07:08.909Z,957.88
2019-04-03T01:08:08.824Z,957.83
2019-04-03T01:09:08.756Z,957.80
2019-04-03T01:10:09.690Z,957.83
2019-04-03T01:11:08.877Z,957.81
2019-04-03T01:12:08.759Z,957.85
2019-04-03T01:13:08.737Z,957.82
2019-04-03T01:14:08.748Z,957.75
2019-04-03T01:15:08.613Z,957.79
2019-04-03T01:16:08.607Z,957.75
2019-04-03T01:17:08.726Z,957.75
2019-04-03T01:18:08.662Z,957.73
2019-04-03T01:19:08.643Z,957.71
2019-04-03T01:20:08.675Z,957.68
2019-04-03T01:21:08.701Z,957.65
2019-04-03T01:22:08.642Z,957.62
2019-04-03T01:23:08.652Z,957.69
2019-04-03T01:24:08.606Z,957.68
2019-04-03T01:25:09.378Z,957.63
2019-04-03T01:26:10.039Z,957.66
2019-04-03T01:27:11.181Z,957.63
2019-04-03T01:28:09.784Z,957.62
2019-04-03T01:29:08.580Z,957.63
2019-04-03T01:30:08.546Z,957.59
2019-04-03T01:31:08.512Z,957.57
2019-04-03T01:32:08.514Z,957.57
2019-04-03T01:33:08.511Z,957.53
2019-04-03T01:34:08.569Z,957.51
2019-04-03T01:35:09.432Z,957.55
2019-04-03T01:36:08.482Z,957.50
2019-04-03T01:37:08.474Z,957.56
2019-04-03T01:38:08.640Z,957.49
2019-04-03T01:39:08.440Z,957.49
2019-04-03T01:40:08.436Z,957.45
2019-04-03T01:41:08.451Z,957.45
2019-04-03T01:42:08.442Z,957.45
2019-04-03T01:43:08.387Z,957.51
2019-04-03T01:44:08.378Z,957.47
2019-04-03T01:45:08.385Z,957.46
2019-04-03T01:46:08.414Z,957.39
2019-04-03T01:47:08.340Z,957.43
2019-04-03T01:48:08.333Z,957.42
2019-04-03T01:49:08.318Z,957.45
2019-04-03T01:50:08.235Z,957.40
2019-04-03T01:51:08.322Z,957.46
2019-04-03T01:52:08.326Z,957.46
2019-04-03T01:53:08.274Z,957.44
2019-04-03T01:54:08.362Z,957.38
2019-04-03T01:55:08.252Z,957.41
2019-04-03T01:56:08.258Z,957.38
2019-04-03T01:57:08.225Z,957.38
2019-04-03T01:58:08.266Z,957.36
2019-04-03T01:59:08.563Z,957.36
2019-04-03T02:00:08.332Z,957.38
2019-04-03T02:01:08.578Z,957.33
2019-04-03T02:02:08.536Z,957.35
2019-04-03T02:03:09.746Z,957.30
2019-04-03T02:04:08.123Z,957.21
2019-04-03T02:05:08.140Z,957.29
2019-04-03T02:06:08.140Z,957.30
2019-04-03T02:07:08.133Z,957.26
2019-04-03T02:08:08.130Z,957.26
2019-04-03T02:09:08.146Z,957.25
2019-04-03T02:10:08.137Z,957.15
2019-04-03T02:11:08.072Z,957.20
2019-04-03T02:12:08.069Z,957.24
2019-04-03T02:13:08.049Z,957.23
2019-04-03T02:14:08.042Z,957.18
2019-04-03T02:15:08.036Z,957.21
2019-04-03T02:16:08.051Z,957.10
2019-04-03T02:17:08.012Z,957.14
2019-04-03T02:18:08.003Z,957.13
2019-04-03T02:19:08.169Z,957.14
2019-04-03T02:20:07.970Z,957.15
2019-04-03T02:21:08.013Z,957.06
2019-04-03T02:22:07.958Z,957.09
2019-04-03T02:23:07.939Z,957.10
2019-04-03T02:24:07.933Z,957.05
2019-04-03T02:25:07.844Z,957.01
2019-04-03T02:26:07.914Z,957.07
2019-04-03T02:27:08.062Z,957.04
2019-04-03T02:28:07.893Z,957.06
2019-04-03T02:29:08.664Z,957.04
2019-04-03T02:30:12.424Z,956.97
2019-04-03T02:31:09.018Z,956.99
2019-04-03T02:32:07.847Z,956.94
2019-04-03T02:33:08.463Z,956.94
2019-04-03T02:34:07.820Z,956.95
2019-04-03T02:35:08.442Z,956.94
2019-04-03T02:36:11.417Z,956.92
2019-04-03T02:37:07.801Z,956.88
2019-04-03T02:38:08.104Z,956.88
2019-04-03T02:39:07.776Z,956.85
2019-04-03T02:40:07.757Z,956.88
2019-04-03T02:41:07.757Z,956.88
2019-04-03T02:42:08.893Z,956.85
2019-04-03T02:43:07.840Z,956.86
2019-04-03T02:44:07.755Z,956.86
2019-04-03T02:45:07.717Z,956.80
2019-04-03T02:46:07.695Z,956.86
2019-04-03T02:47:07.685Z,956.88
2019-04-03T02:48:07.676Z,956.83
2019-04-03T02:49:10.423Z,956.85
2019-04-03T02:50:07.856Z,956.79
2019-04-03T02:51:07.557Z,956.83
2019-04-03T02:52:07.894Z,956.76
2019-04-03T02:53:07.845Z,956.84
2019-04-03T02:54:07.599Z,956.82
2019-04-03T02:55:08.409Z,956.81
2019-04-03T02:56:11.880Z,956.79
2019-04-03T02:57:08.581Z,956.80
2019-04-03T02:58:07.571Z,956.78
2019-04-03T02:59:07.701Z,956.83
2019-04-03T03:00:07.549Z,956.74
2019-04-03T03:01:07.945Z,956.73
2019-04-03T03:02:11.420Z,956.70
2019-04-03T03:03:07.546Z,956.69
2019-04-03T03:04:07.619Z,956.70
2019-04-03T03:05:07.484Z,956.67
2019-04-03T03:06:07.423Z,956.74
2019-04-03T03:07:07.544Z,956.70
2019-04-03T03:08:09.162Z,956.66
2019-04-03T03:09:07.619Z,956.65
2019-04-03T03:10:07.380Z,956.68
2019-04-03T03:11:07.726Z,956.67
2019-04-03T03:12:07.415Z,956.72
2019-04-03T03:13:07.312Z,956.67
2019-04-03T03:14:07.860Z,956.65
2019-04-03T03:15:10.946Z,956.68
2019-04-03T03:16:07.533Z,956.59
2019-04-03T03:17:07.295Z,956.63
2019-04-03T03:18:07.375Z,956.64
2019-04-03T03:19:07.372Z,956.64
2019-04-03T03:20:07.957Z,956.67
2019-04-03T03:21:07.379Z,956.73
2019-04-03T03:22:07.312Z,956.69
2019-04-03T03:23:07.364Z,956.69
2019-04-03T03:24:07.659Z,956.70
2019-04-03T03:25:07.254Z,956.62
2019-04-03T03:26:07.407Z,956.71
2019-04-03T03:27:09.445Z,956.66
2019-04-03T03:28:07.323Z,956.64
2019-04-03T03:29:16.687Z,956.72
2019-04-03T03:30:30.604Z,956.74
2019-04-03T03:31:08.421Z,956.65
2019-04-03T03:32:16.528Z,956.67
2019-04-03T03:33:26.589Z,956.67
2019-04-03T03:34:08.160Z,956.68
2019-04-03T03:35:13.451Z,956.67
2019-04-03T03:36:08.632Z,956.64
2019-04-03T03:37:07.176Z,956.67
2019-04-03T03:38:08.095Z,956.64
2019-04-03T03:39:10.351Z,956.64
2019-04-03T03:40:07.104Z,956.68
2019-04-03T03:41:07.095Z,956.63
2019-04-03T03:42:07.274Z,956.69
2019-04-03T03:43:07.097Z,956.67
2019-04-03T03:44:09.941Z,956.65
2019-04-03T03:45:07.051Z,956.66
2019-04-03T03:46:07.034Z,956.65
2019-04-03T03:47:07.025Z,956.72
2019-04-03T03:48:09.383Z,956.68
2019-04-03T03:49:07.146Z,956.65
2019-04-03T03:50:07.188Z,956.71
2019-04-03T03:51:06.985Z,956.69
2019-04-03T03:52:06.956Z,956.68
2019-04-03T03:53:09.654Z,956.68
2019-04-03T03:54:07.000Z,956.62
2019-04-03T03:55:07.149Z,956.68
2019-04-03T03:56:07.325Z,956.60
2019-04-03T03:57:07.455Z,956.68
2019-04-03T03:58:11.347Z,956.63
2019-04-03T03:59:07.956Z,956.63
2019-04-03T04:00:06.885Z,956.63
2019-04-03T04:01:06.869Z,956.60
2019-04-03T04:02:07.131Z,956.67
2019-04-03T04:03:10.123Z,956.57
2019-04-03T04:04:06.853Z,956.60
2019-04-03T04:05:10.815Z,956.63
2019-04-03T04:06:06.880Z,956.60
2019-04-03T04:07:06.910Z,956.63
2019-04-03T04:08:10.541Z,956.69
2019-04-03T04:09:07.067Z,956.69
2019-04-03T04:10:06.697Z,956.66
2019-04-03T04:11:06.818Z,956.67
2019-04-03T04:12:07.486Z,956.65
2019-04-03T04:13:06.939Z,956.65
2019-04-03T04:14:06.762Z,956.64
2019-04-03T04:15:06.770Z,956.65
2019-04-03T04:16:06.935Z,956.65
2019-04-03T04:17:09.576Z,956.58
2019-04-03T04:18:07.684Z,956.61
2019-04-03T04:19:06.754Z,956.66
2019-04-03T04:20:06.751Z,956.60
2019-04-03T04:21:09.401Z,956.63
2019-04-03T04:22:06.675Z,956.63
2019-04-03T04:23:06.689Z,956.66
2019-04-03T04:24:06.621Z,956.62
2019-04-03T04:25:06.607Z,956.54
2019-04-03T04:26:06.518Z,956.61
2019-04-03T04:27:06.598Z,956.55
2019-04-03T04:28:08.443Z,956.60
2019-04-03T04:29:06.650Z,956.59
2019-04-03T04:30:06.573Z,956.59
2019-04-03T04:31:06.565Z,956.58
2019-04-03T04:32:06.818Z,956.62
2019-04-03T04:33:06.594Z,956.57
2019-04-03T04:34:06.523Z,956.63
2019-04-03T04:35:06.569Z,956.62
2019-04-03T04:36:06.485Z,956.59
2019-04-03T04:37:06.493Z,956.53
2019-04-03T04:38:06.465Z,956.56
2019-04-03T04:39:06.469Z,956.59
2019-04-03T04:40:06.529Z,956.59
2019-04-03T04:41:06.471Z,956.57
2019-04-03T04:42:06.428Z,956.61
2019-04-03T04:43:08.279Z,956.62
2019-04-03T04:44:09.452Z,956.58
2019-04-03T04:45:06.401Z,956.58
2019-04-03T04:46:09.112Z,956.54
2019-04-03T04:47:06.430Z,956.57
2019-04-03T04:48:06.367Z,956.52
2019-04-03T04:49:06.386Z,956.50
2019-04-03T04:50:06.444Z,956.38
2019-04-03T04:51:06.328Z,956.54
2019-04-03T04:52:06.317Z,956.55
2019-04-03T04:53:06.365Z,956.56
2019-04-03T04:54:06.304Z,956.53
2019-04-03T04:55:06.293Z,956.46
2019-04-03T04:56:06.865Z,956.45
2019-04-03T04:57:06.899Z,956.47
2019-04-03T04:58:06.351Z,956.39
2019-04-03T04:59:06.293Z,956.39
2019-04-03T05:00:06.231Z,956.39
2019-04-03T05:01:06.214Z,956.36
2019-04-03T05:02:06.204Z,956.36
2019-04-03T05:03:06.206Z,956.47
2019-04-03T05:04:06.107Z,956.43
2019-04-03T05:05:08.725Z,956.45
2019-04-03T05:06:06.176Z,956.36
2019-04-03T05:07:06.161Z,956.35
2019-04-03T05:08:06.140Z,956.32
2019-04-03T05:09:06.148Z,956.35
2019-04-03T05:10:06.573Z,956.38
2019-04-03T05:11:07.548Z,956.39
2019-04-03T05:12:06.103Z,956.29
2019-04-03T05:13:06.127Z,956.33
2019-04-03T05:14:06.098Z,956.26
2019-04-03T05:15:06.077Z,956.35
2019-04-03T05:16:06.106Z,956.29
2019-04-03T05:17:06.257Z,956.27
2019-04-03T05:18:06.033Z,956.26
2019-04-03T05:19:10.253Z,956.23
2019-04-03T05:20:07.012Z,956.24
2019-04-03T05:21:05.990Z,956.20
2019-04-03T05:22:06.018Z,956.15
2019-04-03T05:23:06.125Z,956.17
2019-04-03T05:24:13.182Z,956.18
2019-04-03T05:25:06.981Z,956.15
2019-04-03T05:26:05.949Z,956.08
2019-04-03T05:27:07.438Z,956.12
2019-04-03T05:28:05.917Z,956.09
2019-04-03T05:29:05.938Z,956.12
2019-04-03T05:30:06.562Z,956.05
2019-04-03T05:31:07.829Z,956.07
2019-04-03T05:32:05.887Z,956.07
2019-04-03T05:33:05.867Z,956.01
2019-04-03T05:34:05.842Z,956.11
2019-04-03T05:35:05.896Z,956.14
2019-04-03T05:36:05.876Z,956.15
2019-04-03T05:37:05.862Z,956.08
2019-04-03T05:38:05.753Z,956.14
2019-04-03T05:39:05.719Z,956.17
2019-04-03T05:40:05.692Z,956.08
2019-04-03T05:41:05.962Z,956.03
2019-04-03T05:42:05.761Z,956.05
2019-04-03T05:43:05.663Z,956.02
2019-04-03T05:44:05.762Z,956.13
2019-04-03T05:45:05.880Z,956.10
2019-04-03T05:46:06.312Z,956.13
2019-04-03T05:47:07.383Z,956.09
2019-04-03T05:48:06.854Z,956.20
2019-04-03T05:49:06.651Z,956.21
2019-04-03T05:50:05.584Z,956.15
2019-04-03T05:51:05.624Z,956.21
2019-04-03T05:52:05.631Z,956.24
2019-04-03T05:53:06.120Z,956.21
2019-04-03T05:54:05.962Z,956.21
2019-04-03T05:55:05.547Z,956.26
2019-04-03T05:56:05.544Z,956.20
2019-04-03T05:57:05.658Z,956.23
2019-04-03T05:58:05.604Z,956.23
2019-04-03T05:59:05.837Z,956.21
2019-04-03T06:00:06.836Z,956.25
2019-04-03T06:01:06.977Z,956.26
2019-04-03T06:02:14.728Z,956.21
2019-04-03T06:03:06.778Z,956.31
2019-04-03T06:04:05.434Z,956.29
2019-04-03T06:05:06.723Z,956.26
2019-04-03T06:06:05.515Z,956.21
2019-04-03T06:07:05.647Z,956.18
2019-04-03T06:08:05.427Z,956.31
2019-04-03T06:09:05.386Z,956.28
2019-04-03T06:10:05.475Z,956.29
2019-04-03T06:11:08.033Z,956.27
2019-04-03T06:12:08.372Z,956.33
2019-04-03T06:13:06.211Z,956.24
2019-04-03T06:14:08.495Z,956.26
2019-04-03T06:15:08.907Z,956.26
2019-04-03T06:16:05.409Z,956.27
2019-04-03T06:17:05.450Z,956.27
2019-04-03T06:18:05.388Z,956.24
2019-04-03T06:19:06.980Z,956.25
2019-04-03T06:20:05.351Z,956.27
2019-04-03T06:21:05.378Z,956.31
2019-04-03T06:22:05.557Z,956.21
2019-04-03T06:23:05.362Z,956.23
2019-04-03T06:24:05.249Z,956.25
2019-04-03T06:25:05.695Z,956.26
2019-04-03T06:26:05.574Z,956.24
2019-04-03T06:27:05.189Z,956.21
2019-04-03T06:28:05.161Z,956.18
2019-04-03T06:29:07.286Z,956.18
2019-04-03T06:30:05.206Z,956.15
2019-04-03T06:31:07.972Z,956.17
2019-04-03T06:32:06.352Z,956.12
2019-04-03T06:33:05.117Z,956.12
2019-04-03T06:34:07.223Z,956.08
2019-04-03T06:35:05.284Z,956.09
2019-04-03T06:36:05.226Z,956.06
2019-04-03T06:37:05.070Z,956.17
2019-04-03T06:38:05.060Z,956.08
2019-04-03T06:39:05.407Z,956.13
2019-04-03T06:40:05.247Z,956.12
2019-04-03T06:41:07.928Z,956.13
2019-04-03T06:42:05.056Z,956.11
2019-04-03T06:43:05.262Z,956.11
2019-04-03T06:44:05.149Z,956.12
2019-04-03T06:45:04.984Z,956.12
2019-04-03T06:46:05.061Z,956.13
2019-04-03T06:47:05.265Z,956.09
2019-04-03T06:48:05.535Z,956.10
2019-04-03T06:49:07.960Z,956.07
2019-04-03T06:50:05.034Z,956.08
2019-04-03T06:51:05.037Z,956.07
2019-04-03T06:52:04.919Z,956.03
2019-04-03T06:53:04.897Z,956.14
2019-04-03T06:54:07.605Z,956.02
2019-04-03T06:55:04.984Z,956.02
2019-04-03T06:56:07.782Z,956.04
2019-04-03T06:57:05.001Z,956.00
2019-04-03T06:58:04.940Z,956.03
2019-04-03T06:59:05.076Z,956.04
2019-04-03T07:00:05.153Z,956.07
2019-04-03T07:01:04.820Z,956.02
2019-04-03T07:02:04.805Z,956.03
2019-04-03T07:03:04.804Z,956.01
2019-04-03T07:04:06.464Z,955.95
2019-04-03T07:05:04.760Z,955.98
2019-04-03T07:06:04.820Z,955.97
2019-04-03T07:07:04.805Z,955.99
2019-04-03T07:08:05.910Z,956.00
2019-04-03T07:09:05.410Z,955.95
2019-04-03T07:10:05.383Z,955.93
2019-04-03T07:11:04.698Z,955.94
2019-04-03T07:12:04.724Z,955.94
2019-04-03T07:13:04.670Z,955.93
2019-04-03T07:14:04.776Z,955.92
2019-04-03T07:15:04.737Z,955.89
2019-04-03T07:16:04.999Z,955.95
2019-04-03T07:17:05.693Z,955.93
2019-04-03T07:18:05.980Z,955.95
2019-04-03T07:19:06.053Z,955.94
2019-04-03T07:20:13.432Z,955.94
2019-04-03T07:21:05.599Z,955.96
2019-04-03T07:22:04.585Z,955.95
2019-04-03T07:23:04.667Z,955.90
2019-04-03T07:24:04.697Z,955.84
2019-04-03T07:25:04.650Z,955.88
2019-04-03T07:26:05.214Z,955.91
2019-04-03T07:27:06.290Z,955.90
2019-04-03T07:28:04.615Z,955.93
2019-04-03T07:29:04.644Z,955.89
2019-04-03T07:30:04.490Z,955.97
2019-04-03T07:31:04.462Z,955.93
2019-04-03T07:32:04.511Z,955.97
2019-04-03T07:33:05.758Z,955.92
2019-04-03T07:34:04.595Z,955.91
2019-04-03T07:35:08.926Z,955.85
2019-04-03T07:36:05.772Z,955.83
2019-04-03T07:37:04.406Z,955.85
2019-04-03T07:38:04.753Z,955.80
2019-04-03T07:39:04.388Z,955.83
2019-04-03T07:40:04.505Z,955.84
2019-04-03T07:41:04.514Z,955.90
2019-04-03T07:42:04.468Z,955.90
2019-04-03T07:43:04.452Z,955.88
2019-04-03T07:44:04.442Z,955.88
2019-04-03T07:45:04.682Z,955.84
2019-04-03T07:46:04.418Z,955.85
2019-04-03T07:47:04.721Z,955.89
2019-04-03T07:48:06.686Z,955.88
2019-04-03T07:49:04.504Z,955.84
2019-04-03T07:50:04.461Z,955.83
2019-04-03T07:51:04.373Z,955.86
2019-04-03T07:52:04.727Z,955.83
2019-04-03T07:53:04.458Z,955.87
2019-04-03T07:54:04.931Z,955.83
2019-04-03T07:55:04.290Z,955.92
2019-04-03T07:56:04.254Z,955.76
2019-04-03T07:57:04.309Z,955.81
2019-04-03T07:58:04.290Z,955.81
2019-04-03T07:59:04.343Z,955.80
2019-04-03T08:00:07.043Z,955.79
2019-04-03T08:01:04.252Z,955.77
2019-04-03T08:02:04.299Z,955.81
2019-04-03T08:03:04.235Z,955.76
2019-04-03T08:04:04.302Z,955.84
2019-04-03T08:05:04.213Z,955.78
2019-04-03T08:06:04.479Z,955.79
2019-04-03T08:07:04.186Z,955.72
2019-04-03T08:08:04.321Z,955.76
2019-04-03T08:09:08.844Z,955.81
2019-04-03T08:10:05.171Z,955.78
2019-04-03T08:11:04.130Z,955.77
2019-04-03T08:12:04.553Z,955.78
2019-04-03T08:13:05.016Z,955.77
2019-04-03T08:14:04.071Z,955.81
2019-04-03T08:15:04.010Z,955.79
2019-04-03T08:16:04.038Z,955.82
2019-04-03T08:17:03.991Z,955.81
2019-04-03T08:18:03.971Z,955.78
2019-04-03T08:19:04.067Z,955.80
2019-04-03T08:20:04.006Z,955.78
2019-04-03T08:21:03.935Z,955.74
2019-04-03T08:22:03.928Z,955.70
2019-04-03T08:23:05.709Z,955.74
2019-04-03T08:24:04.089Z,955.67
2019-04-03T08:25:03.917Z,955.69
2019-04-03T08:26:03.915Z,955.78
2019-04-03T08:27:03.871Z,955.70
2019-04-03T08:28:04.130Z,955.72
2019-04-03T08:29:03.860Z,955.76
2019-04-03T08:30:03.825Z,955.72
2019-04-03T08:31:03.825Z,955.73
2019-04-03T08:32:03.853Z,955.74
2019-04-03T08:33:15.264Z,955.74
2019-04-03T08:34:14.634Z,955.74
2019-04-03T08:35:04.883Z,955.67
2019-04-03T08:36:06.648Z,955.69
2019-04-03T08:37:04.056Z,955.71
2019-04-03T08:38:04.077Z,955.69
2019-04-03T08:39:03.730Z,955.64
2019-04-03T08:40:03.742Z,955.66
2019-04-03T08:41:04.369Z,955.71
2019-04-03T08:42:03.690Z,955.69
2019-04-03T08:43:03.685Z,955.66
2019-04-03T08:44:07.368Z,955.70
2019-04-03T08:45:06.615Z,955.72
2019-04-03T08:46:03.962Z,955.64
2019-04-03T08:47:03.726Z,955.70
2019-04-03T08:48:06.152Z,955.72
2019-04-03T08:49:03.855Z,955.66
2019-04-03T08:50:03.976Z,955.63
2019-04-03T08:51:03.880Z,955.67
2019-04-03T08:52:05.620Z,955.67
2019-04-03T08:53:03.732Z,955.66
2019-04-03T08:54:03.576Z,955.67
2019-04-03T08:55:03.772Z,955.64
2019-04-03T08:56:03.666Z,955.62
2019-04-03T08:57:03.547Z,955.59
2019-04-03T08:58:03.526Z,955.56
2019-04-03T08:59:03.782Z,955.61
2019-04-03T09:00:03.498Z,955.59
2019-04-03T09:01:04.781Z,955.58
2019-04-03T09:02:03.587Z,955.61
2019-04-03T09:03:04.292Z,955.60
2019-04-03T09:04:03.500Z,955.55
2019-04-03T09:05:03.466Z,955.59
2019-04-03T09:06:03.536Z,955.55
2019-04-03T09:07:03.502Z,955.52
2019-04-03T09:08:03.414Z,955.50
2019-04-03T09:09:03.493Z,955.51
2019-04-03T09:10:04.593Z,955.55
2019-04-03T09:11:05.065Z,955.50
2019-04-03T09:12:03.873Z,955.53
2019-04-03T09:13:16.108Z,955.38
2019-04-03T09:14:04.584Z,955.48
2019-04-03T09:15:03.336Z,955.43
2019-04-03T09:16:03.464Z,955.39
2019-04-03T09:17:03.590Z,955.36
2019-04-03T09:18:05.574Z,955.36
2019-04-03T09:19:03.299Z,955.31
2019-04-03T09:20:03.382Z,955.31
2019-04-03T09:21:03.368Z,955.40
2019-04-03T09:22:03.410Z,955.39
2019-04-03T09:23:03.247Z,955.41
2019-04-03T09:24:03.619Z,955.38
2019-04-03T09:25:03.315Z,955.39
2019-04-03T09:26:03.838Z,955.35
2019-04-03T09:27:03.286Z,955.37
2019-04-03T09:28:03.210Z,955.31
2019-04-03T09:29:03.346Z,955.33
2019-04-03T09:30:03.219Z,955.35
2019-04-03T09:31:03.521Z,955.33
2019-04-03T09:32:03.164Z,955.25
2019-04-03T09:33:03.135Z,955.28
2019-04-03T09:34:03.289Z,955.24
2019-04-03T09:35:03.141Z,955.22
2019-04-03T09:36:04.411Z,955.12
2019-04-03T09:37:05.836Z,955.15
2019-04-03T09:38:03.207Z,955.20
2019-04-03T09:39:03.190Z,955.17
2019-04-03T09:40:03.175Z,955.19
2019-04-03T09:41:03.151Z,955.13
2019-04-03T09:42:03.186Z,955.12
2019-04-03T09:43:03.127Z,955.14
2019-04-03T09:44:03.162Z,955.10
2019-04-03T09:45:03.083Z,955.06
2019-04-03T09:46:03.322Z,955.02
2019-04-03T09:47:03.784Z,955.03
2019-04-03T09:48:04.595Z,954.95
2019-04-03T09:49:02.968Z,955.02
2019-04-03T09:50:02.964Z,955.01
2019-04-03T09:51:03.152Z,954.99
2019-04-03T09:52:02.938Z,955.02
2019-04-03T09:53:03.002Z,954.87
2019-04-03T09:54:02.915Z,955.04
2019-04-03T09:55:02.898Z,954.93
2019-04-03T09:56:02.901Z,954.98
2019-04-03T09:57:04.861Z,954.92
2019-04-03T09:58:04.157Z,954.85
2019-04-03T09:59:04.467Z,954.83
2019-04-03T10:00:02.838Z,954.86
2019-04-03T10:01:02.838Z,954.87
2019-04-03T10:02:02.818Z,954.83
2019-04-03T10:03:05.386Z,954.75
2019-04-03T10:04:02.865Z,954.88
2019-04-03T10:05:03.117Z,954.75
2019-04-03T10:06:02.818Z,954.71
2019-04-03T10:07:02.785Z,954.72
2019-04-03T10:08:02.758Z,954.76
2019-04-03T10:09:02.733Z,954.69
2019-04-03T10:10:02.798Z,954.70
2019-04-03T10:11:02.734Z,954.66
2019-04-03T10:12:02.700Z,954.67
2019-04-03T10:13:02.700Z,954.62
2019-04-03T10:14:02.980Z,954.63
2019-04-03T10:15:02.746Z,954.63
2019-04-03T10:16:03.880Z,954.62
2019-04-03T10:17:03.918Z,954.66
2019-04-03T10:18:02.643Z,954.63
2019-04-03T10:19:02.638Z,954.58
2019-04-03T10:20:02.619Z,954.63
2019-04-03T10:21:02.645Z,954.65
2019-04-03T10:22:02.996Z,954.61
2019-04-03T10:23:02.607Z,954.41
2019-04-03T10:24:02.603Z,954.46
2019-04-03T10:25:05.353Z,954.42
2019-04-03T10:26:02.560Z,954.45
2019-04-03T10:27:02.564Z,954.50
2019-04-03T10:28:02.582Z,954.34
2019-04-03T10:29:02.711Z,954.38
2019-04-03T10:30:02.519Z,954.34
2019-04-03T10:31:02.595Z,954.37
2019-04-03T10:32:02.608Z,954.32
2019-04-03T10:33:02.494Z,954.23
2019-04-03T10:34:03.849Z,954.28
2019-04-03T10:35:02.509Z,954.30
2019-04-03T10:36:02.461Z,954.26
2019-04-03T10:37:02.444Z,954.42
2019-04-03T10:38:02.443Z,954.39
2019-04-03T10:39:02.419Z,954.36
2019-04-03T10:40:02.410Z,954.35
2019-04-03T10:41:02.438Z,954.21
2019-04-03T10:42:02.376Z,954.28
2019-04-03T10:43:04.636Z,954.22
2019-04-03T10:44:02.743Z,954.16
2019-04-03T10:45:02.358Z,954.26
2019-04-03T10:46:02.352Z,954.47
2019-04-03T10:47:02.394Z,954.24
2019-04-03T10:48:02.327Z,954.22
2019-04-03T10:49:02.365Z,954.17
2019-04-03T10:50:04.574Z,954.09
2019-04-03T10:51:02.289Z,954.16
2019-04-03T10:52:02.271Z,954.12
2019-04-03T10:53:02.286Z,954.14
2019-04-03T10:54:02.250Z,954.10
2019-04-03T10:55:02.264Z,954.02
2019-04-03T10:56:02.280Z,954.04
2019-04-03T10:57:03.371Z,954.11
2019-04-03T10:58:02.631Z,954.11
2019-04-03T10:59:10.295Z,954.14
2019-04-03T11:00:03.248Z,954.02
2019-04-03T11:01:02.189Z,954.01
2019-04-03T11:02:02.194Z,953.90
2019-04-03T11:03:02.147Z,954.00
2019-04-03T11:04:02.161Z,953.97
2019-04-03T11:05:02.135Z,954.07
2019-04-03T11:06:02.293Z,953.86
2019-04-03T11:07:02.107Z,954.14
2019-04-03T11:08:02.511Z,953.83
2019-04-03T11:09:02.245Z,953.75
2019-04-03T11:10:02.062Z,953.76
2019-04-03T11:11:04.451Z,953.78
2019-04-03T11:12:02.054Z,953.65
2019-04-03T11:13:03.243Z,953.74
2019-04-03T11:14:03.037Z,953.59
2019-04-03T11:15:02.010Z,953.70
2019-04-03T11:16:02.015Z,953.70
2019-04-03T11:17:01.989Z,953.64
2019-04-03T11:18:02.000Z,953.61
2019-04-03T11:19:05.001Z,953.60
2019-04-03T11:20:02.112Z,953.52
2019-04-03T11:21:02.209Z,953.64
2019-04-03T11:22:01.947Z,953.68
2019-04-03T11:23:06.386Z,953.66
2019-04-03T11:24:04.387Z,953.54
2019-04-03T11:25:02.020Z,953.54
2019-04-03T11:26:01.927Z,953.64
2019-04-03T11:27:01.891Z,953.64
2019-04-03T11:28:05.027Z,953.61
2019-04-03T11:29:01.849Z,953.73
2019-04-03T11:30:02.114Z,953.56
2019-04-03T11:31:02.089Z,953.64
2019-04-03T11:32:01.977Z,953.72
2019-04-03T11:33:01.808Z,953.66
2019-04-03T11:34:01.818Z,953.58
2019-04-03T11:35:01.790Z,953.50
2019-04-03T11:36:02.142Z,953.50
2019-04-03T11:37:02.135Z,953.50
2019-04-03T11:38:11.713Z,953.50
2019-04-03T11:39:12.263Z,953.39
2019-04-03T11:40:05.150Z,953.43
2019-04-03T11:41:11.693Z,953.44
2019-04-03T11:42:03.032Z,953.47
2019-04-03T11:43:01.707Z,953.45
2019-04-03T11:44:01.723Z,953.43
2019-04-03T11:45:04.321Z,953.37
2019-04-03T11:46:01.672Z,953.31
2019-04-03T11:47:01.667Z,953.36
2019-04-03T11:48:01.699Z,953.34
2019-04-03T11:49:01.647Z,953.34
2019-04-03T11:50:01.631Z,953.31
2019-04-03T11:51:01.725Z,953.26
2019-04-03T11:52:01.997Z,953.36
2019-04-03T11:53:02.810Z,953.35
2019-04-03T11:54:01.629Z,953.31
2019-04-03T11:55:01.552Z,953.36
2019-04-03T11:56:01.567Z,953.27
2019-04-03T11:57:01.547Z,953.36
2019-04-03T11:58:01.548Z,953.26
2019-04-03T11:59:01.530Z,953.28
2019-04-03T12:00:01.569Z,953.26
2019-04-03T12:01:01.507Z,953.32
2019-04-03T12:02:01.487Z,953.29
2019-04-03T12:03:01.487Z,953.27
2019-04-03T12:04:01.632Z,953.22
2019-04-03T12:05:01.469Z,953.22
2019-04-03T12:06:01.537Z,953.19
2019-04-03T12:07:01.794Z,953.22
2019-04-03T12:08:01.701Z,953.21
2019-04-03T12:09:01.408Z,953.16
2019-04-03T12:10:03.509Z,953.14
2019-04-03T12:11:01.550Z,953.16
2019-04-03T12:12:01.421Z,953.13
2019-04-03T12:13:03.810Z,953.17
2019-04-03T12:14:01.560Z,953.12
2019-04-03T12:15:01.366Z,953.23
2019-04-03T12:16:01.572Z,953.18
2019-04-03T12:17:01.339Z,953.22
2019-04-03T12:18:02.345Z,953.14
2019-04-03T12:19:02.881Z,953.20
2019-04-03T12:20:01.287Z,953.09
2019-04-03T12:21:01.289Z,953.05
2019-04-03T12:22:01.268Z,953.01
2019-04-03T12:23:01.582Z,952.95
2019-04-03T12:24:01.588Z,952.95
2019-04-03T12:25:01.231Z,953.00
2019-04-03T12:26:01.322Z,953.06
2019-04-03T12:27:01.207Z,953.04
2019-04-03T12:28:01.191Z,953.06